sensor_id;sensor_type;location;lat;lon;timestamp;P1;durP1;ratioP1;P2;durP2;ratioP2
18931;SDS011;9598;50.954;3.112;2023-08-17T00:00:12;10.85;;;9.90;;
18931;SDS011;9598;50.954;3.112;2023-08-17T00:05:15;10.32;;;9.52;;
18931;SDS011;9598;50.954;3.112;2023-08-17T00:10:18;10.00;;;9.15;;
18931;SDS011;9598;50.954;3.112;2023-08-17T00:15:20;11.13;;;10.13;;
18931;SDS011;9598;50.954;3.112;2023-08-17T00:20:22;9.93;;;9.02;;
18931;SDS011;9598;50.954;3.112;2023-08-17T00:25:26;10.80;;;9.82;;
18931;SDS011;9598;50.954;3.112;2023-08-17T00:30:28;10.85;;;9.75;;
18931;SDS011;9598;50.954;3.112;2023-08-17T00:35:30;9.55;;;8.82;;
18931;SDS011;9598;50.954;3.112;2023-08-17T00:40:34;9.20;;;8.43;;
18931;SDS011;9598;50.954;3.112;2023-08-17T00:45:36;9.00;;;8.30;;
18931;SDS011;9598;50.954;3.112;2023-08-17T00:50:38;8.32;;;7.53;;
18931;SDS011;9598;50.954;3.112;2023-08-17T00:55:43;8.90;;;8.10;;
18931;SDS011;9598;50.954;3.112;2023-08-17T01:00:46;9.75;;;8.85;;
18931;SDS011;9598;50.954;3.112;2023-08-17T01:05:49;9.45;;;8.65;;
18931;SDS011;9598;50.954;3.112;2023-08-17T01:10:55;8.95;;;8.25;;
18931;SDS011;9598;50.954;3.112;2023-08-17T01:16:01;9.20;;;8.48;;
18931;SDS011;9598;50.954;3.112;2023-08-17T01:21:08;9.88;;;9.02;;
18931;SDS011;9598;50.954;3.112;2023-08-17T01:26:16;9.50;;;8.70;;
18931;SDS011;9598;50.954;3.112;2023-08-17T01:31:19;9.20;;;8.45;;
18931;SDS011;9598;50.954;3.112;2023-08-17T01:36:25;12.55;;;9.05;;
18931;SDS011;9598;50.954;3.112;2023-08-17T01:41:35;9.70;;;8.85;;
18931;SDS011;9598;50.954;3.112;2023-08-17T01:46:39;10.18;;;9.27;;
18931;SDS011;9598;50.954;3.112;2023-08-17T01:51:42;10.20;;;9.20;;
18931;SDS011;9598;50.954;3.112;2023-08-17T01:56:45;9.65;;;8.77;;
18931;SDS011;9598;50.954;3.112;2023-08-17T02:01:47;8.80;;;8.00;;
18931;SDS011;9598;50.954;3.112;2023-08-17T02:06:49;9.57;;;8.68;;
18931;SDS011;9598;50.954;3.112;2023-08-17T02:11:54;10.30;;;9.30;;
18931;SDS011;9598;50.954;3.112;2023-08-17T02:16:56;9.70;;;8.65;;
18931;SDS011;9598;50.954;3.112;2023-08-17T02:21:58;9.20;;;8.45;;
18931;SDS011;9598;50.954;3.112;2023-08-17T02:27:02;9.48;;;8.68;;
18931;SDS011;9598;50.954;3.112;2023-08-17T02:32:04;9.35;;;8.43;;
18931;SDS011;9598;50.954;3.112;2023-08-17T02:37:07;9.73;;;8.90;;
18931;SDS011;9598;50.954;3.112;2023-08-17T02:42:10;10.50;;;8.23;;
18931;SDS011;9598;50.954;3.112;2023-08-17T02:47:12;8.63;;;7.85;;
18931;SDS011;9598;50.954;3.112;2023-08-17T02:52:14;7.47;;;6.88;;
18931;SDS011;9598;50.954;3.112;2023-08-17T02:57:18;7.97;;;7.07;;
18931;SDS011;9598;50.954;3.112;2023-08-17T03:02:20;7.78;;;6.97;;
18931;SDS011;9598;50.954;3.112;2023-08-17T03:07:22;7.32;;;6.65;;
18931;SDS011;9598;50.954;3.112;2023-08-17T03:12:26;7.70;;;6.65;;
18931;SDS011;9598;50.954;3.112;2023-08-17T03:17:28;7.60;;;7.00;;
18931;SDS011;9598;50.954;3.112;2023-08-17T03:22:30;7.65;;;6.40;;
18931;SDS011;9598;50.954;3.112;2023-08-17T03:27:33;7.18;;;6.53;;
18931;SDS011;9598;50.954;3.112;2023-08-17T03:32:37;6.78;;;6.18;;
18931;SDS011;9598;50.954;3.112;2023-08-17T03:37:39;7.35;;;6.00;;
18931;SDS011;9598;50.954;3.112;2023-08-17T03:42:43;7.22;;;6.40;;
18931;SDS011;9598;50.954;3.112;2023-08-17T03:47:46;6.68;;;6.07;;
18931;SDS011;9598;50.954;3.112;2023-08-17T03:52:48;6.70;;;6.10;;
18931;SDS011;9598;50.954;3.112;2023-08-17T03:57:52;7.68;;;6.63;;
18931;SDS011;9598;50.954;3.112;2023-08-17T04:02:54;6.75;;;6.10;;
18931;SDS011;9598;50.954;3.112;2023-08-17T04:07:56;7.30;;;6.60;;
18931;SDS011;9598;50.954;3.112;2023-08-17T04:13:03;7.38;;;6.65;;
18931;SDS011;9598;50.954;3.112;2023-08-17T04:18:05;8.95;;;6.75;;
18931;SDS011;9598;50.954;3.112;2023-08-17T04:23:08;6.07;;;5.53;;
18931;SDS011;9598;50.954;3.112;2023-08-17T04:28:11;8.60;;;6.85;;
18931;SDS011;9598;50.954;3.112;2023-08-17T04:33:14;6.97;;;6.03;;
18931;SDS011;9598;50.954;3.112;2023-08-17T04:38:16;7.45;;;6.10;;
18931;SDS011;9598;50.954;3.112;2023-08-17T04:43:20;6.43;;;5.82;;
18931;SDS011;9598;50.954;3.112;2023-08-17T04:48:23;8.40;;;6.85;;
18931;SDS011;9598;50.954;3.112;2023-08-17T04:53:25;6.60;;;5.95;;
18931;SDS011;9598;50.954;3.112;2023-08-17T04:58:28;7.22;;;5.85;;
18931;SDS011;9598;50.954;3.112;2023-08-17T05:03:31;6.95;;;6.25;;
18931;SDS011;9598;50.954;3.112;2023-08-17T05:08:34;7.75;;;5.53;;
18931;SDS011;9598;50.954;3.112;2023-08-17T05:13:38;6.57;;;5.90;;
18931;SDS011;9598;50.954;3.112;2023-08-17T05:18:40;5.72;;;5.15;;
18931;SDS011;9598;50.954;3.112;2023-08-17T05:23:44;7.22;;;5.47;;
18931;SDS011;9598;50.954;3.112;2023-08-17T05:28:47;8.68;;;5.85;;
18931;SDS011;9598;50.954;3.112;2023-08-17T05:33:50;7.78;;;5.80;;
18931;SDS011;9598;50.954;3.112;2023-08-17T05:38:53;6.47;;;5.88;;
18931;SDS011;9598;50.954;3.112;2023-08-17T05:43:56;6.18;;;5.68;;
18931;SDS011;9598;50.954;3.112;2023-08-17T05:48:58;6.32;;;5.57;;
18931;SDS011;9598;50.954;3.112;2023-08-17T05:54:01;7.22;;;5.43;;
18931;SDS011;9598;50.954;3.112;2023-08-17T05:59:04;9.02;;;5.57;;
18931;SDS011;9598;50.954;3.112;2023-08-17T06:04:07;5.93;;;5.32;;
18931;SDS011;9598;50.954;3.112;2023-08-17T06:09:09;6.25;;;5.35;;
18931;SDS011;9598;50.954;3.112;2023-08-17T06:14:12;5.45;;;4.90;;
18931;SDS011;9598;50.954;3.112;2023-08-17T06:19:14;6.32;;;5.72;;
18931;SDS011;9598;50.954;3.112;2023-08-17T06:24:16;5.55;;;5.05;;
18931;SDS011;9598;50.954;3.112;2023-08-17T06:29:19;5.82;;;4.93;;
18931;SDS011;9598;50.954;3.112;2023-08-17T06:34:21;6.43;;;5.63;;
18931;SDS011;9598;50.954;3.112;2023-08-17T06:39:23;5.50;;;4.50;;
18931;SDS011;9598;50.954;3.112;2023-08-17T06:44:27;5.40;;;4.43;;
18931;SDS011;9598;50.954;3.112;2023-08-17T06:49:30;4.68;;;4.20;;
18931;SDS011;9598;50.954;3.112;2023-08-17T06:54:33;6.93;;;4.30;;
18931;SDS011;9598;50.954;3.112;2023-08-17T06:59:37;6.90;;;4.40;;
18931;SDS011;9598;50.954;3.112;2023-08-17T07:04:39;5.65;;;5.15;;
18931;SDS011;9598;50.954;3.112;2023-08-17T07:09:41;6.38;;;5.00;;
18931;SDS011;9598;50.954;3.112;2023-08-17T07:14:44;5.55;;;4.90;;
18931;SDS011;9598;50.954;3.112;2023-08-17T07:19:46;7.32;;;5.45;;
18931;SDS011;9598;50.954;3.112;2023-08-17T07:24:48;6.25;;;4.88;;
18931;SDS011;9598;50.954;3.112;2023-08-17T07:29:51;5.57;;;4.80;;
18931;SDS011;9598;50.954;3.112;2023-08-17T07:34:54;5.60;;;5.00;;
18931;SDS011;9598;50.954;3.112;2023-08-17T07:39:56;6.22;;;4.97;;
18931;SDS011;9598;50.954;3.112;2023-08-17T07:44:59;10.77;;;5.28;;
18931;SDS011;9598;50.954;3.112;2023-08-17T07:50:05;8.45;;;5.38;;
18931;SDS011;9598;50.954;3.112;2023-08-17T07:55:08;6.15;;;5.13;;
18931;SDS011;9598;50.954;3.112;2023-08-17T08:00:11;6.82;;;4.85;;
18931;SDS011;9598;50.954;3.112;2023-08-17T08:05:14;7.90;;;5.35;;
18931;SDS011;9598;50.954;3.112;2023-08-17T08:10:16;5.15;;;4.65;;
18931;SDS011;9598;50.954;3.112;2023-08-17T08:15:20;6.97;;;4.90;;
18931;SDS011;9598;50.954;3.112;2023-08-17T08:20:22;5.68;;;4.80;;
18931;SDS011;9598;50.954;3.112;2023-08-17T08:25:24;5.57;;;5.00;;
18931;SDS011;9598;50.954;3.112;2023-08-17T08:30:28;6.30;;;5.57;;
18931;SDS011;9598;50.954;3.112;2023-08-17T08:35:30;5.97;;;5.18;;
18931;SDS011;9598;50.954;3.112;2023-08-17T08:40:32;5.90;;;5.25;;
18931;SDS011;9598;50.954;3.112;2023-08-17T08:45:40;7.18;;;5.10;;
18931;SDS011;9598;50.954;3.112;2023-08-17T08:50:44;7.07;;;5.50;;
18931;SDS011;9598;50.954;3.112;2023-08-17T08:55:50;6.00;;;5.40;;
18931;SDS011;9598;50.954;3.112;2023-08-17T09:00:57;6.20;;;5.45;;
18931;SDS011;9598;50.954;3.112;2023-08-17T09:05:59;7.80;;;5.50;;
18931;SDS011;9598;50.954;3.112;2023-08-17T09:11:02;7.93;;;5.55;;
18931;SDS011;9598;50.954;3.112;2023-08-17T09:16:05;6.47;;;5.70;;
18931;SDS011;9598;50.954;3.112;2023-08-17T09:21:07;10.20;;;6.30;;
18931;SDS011;9598;50.954;3.112;2023-08-17T09:26:09;9.07;;;6.25;;
18931;SDS011;9598;50.954;3.112;2023-08-17T09:31:13;6.57;;;5.80;;
18931;SDS011;9598;50.954;3.112;2023-08-17T09:36:15;6.07;;;5.55;;
18931;SDS011;9598;50.954;3.112;2023-08-17T09:41:21;15.38;;;6.95;;
18931;SDS011;9598;50.954;3.112;2023-08-17T09:46:24;8.10;;;5.90;;
18931;SDS011;9598;50.954;3.112;2023-08-17T09:51:28;7.97;;;5.93;;
18931;SDS011;9598;50.954;3.112;2023-08-17T09:56:31;6.28;;;5.57;;
18931;SDS011;9598;50.954;3.112;2023-08-17T10:01:35;7.22;;;6.38;;
18931;SDS011;9598;50.954;3.112;2023-08-17T10:06:37;7.50;;;6.85;;
18931;SDS011;9598;50.954;3.112;2023-08-17T10:11:42;7.18;;;6.47;;
18931;SDS011;9598;50.954;3.112;2023-08-17T10:16:49;9.75;;;7.18;;
18931;SDS011;9598;50.954;3.112;2023-08-17T10:22:00;9.15;;;6.47;;
18931;SDS011;9598;50.954;3.112;2023-08-17T10:27:07;8.00;;;7.22;;
18931;SDS011;9598;50.954;3.112;2023-08-17T10:32:13;8.60;;;7.18;;
18931;SDS011;9598;50.954;3.112;2023-08-17T10:37:17;8.32;;;7.53;;
18931;SDS011;9598;50.954;3.112;2023-08-17T10:42:30;9.25;;;7.82;;
18931;SDS011;9598;50.954;3.112;2023-08-17T10:47:34;10.82;;;8.70;;
18931;SDS011;9598;50.954;3.112;2023-08-17T10:52:36;7.95;;;7.15;;
18931;SDS011;9598;50.954;3.112;2023-08-17T10:57:39;9.70;;;8.70;;
18931;SDS011;9598;50.954;3.112;2023-08-17T11:02:44;8.77;;;7.97;;
18931;SDS011;9598;50.954;3.112;2023-08-17T11:07:46;8.77;;;7.93;;
18931;SDS011;9598;50.954;3.112;2023-08-17T11:12:48;8.02;;;7.38;;
18931;SDS011;9598;50.954;3.112;2023-08-17T11:17:52;8.57;;;7.78;;
18931;SDS011;9598;50.954;3.112;2023-08-17T11:22:55;24.80;;;10.48;;
18931;SDS011;9598;50.954;3.112;2023-08-17T11:27:58;11.82;;;9.23;;
18931;SDS011;9598;50.954;3.112;2023-08-17T11:33:02;10.48;;;8.50;;
18931;SDS011;9598;50.954;3.112;2023-08-17T11:38:05;9.48;;;8.50;;
18931;SDS011;9598;50.954;3.112;2023-08-17T11:43:08;8.52;;;7.72;;
18931;SDS011;9598;50.954;3.112;2023-08-17T11:48:11;9.95;;;9.05;;
18931;SDS011;9598;50.954;3.112;2023-08-17T11:53:17;9.80;;;8.68;;
18931;SDS011;9598;50.954;3.112;2023-08-17T11:58:19;10.68;;;9.15;;
18931;SDS011;9598;50.954;3.112;2023-08-17T12:03:39;11.18;;;10.07;;
18931;SDS011;9598;50.954;3.112;2023-08-17T12:08:42;11.20;;;10.15;;
18931;SDS011;9598;50.954;3.112;2023-08-17T12:13:48;11.27;;;10.18;;
18931;SDS011;9598;50.954;3.112;2023-08-17T12:18:53;10.98;;;9.98;;
18931;SDS011;9598;50.954;3.112;2023-08-17T12:23:55;11.38;;;10.45;;
18931;SDS011;9598;50.954;3.112;2023-08-17T12:28:57;14.02;;;12.65;;
18931;SDS011;9598;50.954;3.112;2023-08-17T12:34:01;15.23;;;13.63;;
18931;SDS011;9598;50.954;3.112;2023-08-17T12:39:03;15.05;;;12.60;;
18931;SDS011;9598;50.954;3.112;2023-08-17T12:44:06;12.35;;;10.52;;
18931;SDS011;9598;50.954;3.112;2023-08-17T12:49:13;13.50;;;12.07;;
18931;SDS011;9598;50.954;3.112;2023-08-17T12:54:15;13.40;;;12.02;;
18931;SDS011;9598;50.954;3.112;2023-08-17T12:59:17;18.50;;;13.93;;
18931;SDS011;9598;50.954;3.112;2023-08-17T13:04:21;19.52;;;13.75;;
18931;SDS011;9598;50.954;3.112;2023-08-17T13:09:23;24.92;;;15.20;;
18931;SDS011;9598;50.954;3.112;2023-08-17T13:14:25;17.08;;;14.95;;
18931;SDS011;9598;50.954;3.112;2023-08-17T13:19:28;14.75;;;13.35;;
18931;SDS011;9598;50.954;3.112;2023-08-17T13:24:30;17.58;;;14.75;;
18931;SDS011;9598;50.954;3.112;2023-08-17T13:29:32;17.38;;;15.65;;
18931;SDS011;9598;50.954;3.112;2023-08-17T13:34:37;16.90;;;15.38;;
18931;SDS011;9598;50.954;3.112;2023-08-17T13:39:39;21.30;;;19.48;;
18931;SDS011;9598;50.954;3.112;2023-08-17T13:44:41;20.42;;;18.50;;
18931;SDS011;9598;50.954;3.112;2023-08-17T13:49:44;16.58;;;15.18;;
18931;SDS011;9598;50.954;3.112;2023-08-17T13:54:46;17.17;;;15.38;;
18931;SDS011;9598;50.954;3.112;2023-08-17T13:59:49;18.80;;;16.98;;
18931;SDS011;9598;50.954;3.112;2023-08-17T14:04:53;18.00;;;15.98;;
18931;SDS011;9598;50.954;3.112;2023-08-17T14:09:55;19.23;;;17.23;;
18931;SDS011;9598;50.954;3.112;2023-08-17T14:14:57;19.10;;;17.40;;
18931;SDS011;9598;50.954;3.112;2023-08-17T14:20:01;18.35;;;16.65;;
18931;SDS011;9598;50.954;3.112;2023-08-17T14:25:05;17.48;;;15.93;;
18931;SDS011;9598;50.954;3.112;2023-08-17T14:30:07;20.45;;;18.27;;
18931;SDS011;9598;50.954;3.112;2023-08-17T14:35:11;21.13;;;18.58;;
18931;SDS011;9598;50.954;3.112;2023-08-17T14:40:13;20.63;;;18.00;;
18931;SDS011;9598;50.954;3.112;2023-08-17T14:45:15;23.95;;;21.38;;
18931;SDS011;9598;50.954;3.112;2023-08-17T14:50:18;21.35;;;19.35;;
18931;SDS011;9598;50.954;3.112;2023-08-17T14:55:21;22.63;;;20.63;;
18931;SDS011;9598;50.954;3.112;2023-08-17T15:00:23;25.38;;;22.77;;
18931;SDS011;9598;50.954;3.112;2023-08-17T15:05:26;28.55;;;25.67;;
18931;SDS011;9598;50.954;3.112;2023-08-17T15:10:29;26.77;;;24.23;;
18931;SDS011;9598;50.954;3.112;2023-08-17T15:15:32;23.35;;;21.45;;
18931;SDS011;9598;50.954;3.112;2023-08-17T15:20:36;26.55;;;24.08;;
18931;SDS011;9598;50.954;3.112;2023-08-17T15:25:38;28.88;;;26.20;;
18931;SDS011;9598;50.954;3.112;2023-08-17T15:30:40;34.60;;;31.17;;
18931;SDS011;9598;50.954;3.112;2023-08-17T15:35:43;33.85;;;30.55;;
18931;SDS011;9598;50.954;3.112;2023-08-17T15:40:45;38.20;;;34.15;;
18931;SDS011;9598;50.954;3.112;2023-08-17T15:45:49;33.97;;;30.35;;
18931;SDS011;9598;50.954;3.112;2023-08-17T15:50:54;28.05;;;25.15;;
18931;SDS011;9598;50.954;3.112;2023-08-17T15:55:56;25.10;;;21.48;;
18931;SDS011;9598;50.954;3.112;2023-08-17T16:00:58;24.70;;;22.50;;
18931;SDS011;9598;50.954;3.112;2023-08-17T16:06:02;28.17;;;25.17;;
18931;SDS011;9598;50.954;3.112;2023-08-17T16:11:04;28.88;;;26.30;;
18931;SDS011;9598;50.954;3.112;2023-08-17T16:16:06;31.63;;;28.77;;
18931;SDS011;9598;50.954;3.112;2023-08-17T16:21:09;28.13;;;25.45;;
18931;SDS011;9598;50.954;3.112;2023-08-17T16:26:11;23.42;;;21.33;;
18931;SDS011;9598;50.954;3.112;2023-08-17T16:31:13;25.90;;;23.45;;
18931;SDS011;9598;50.954;3.112;2023-08-17T16:36:17;33.75;;;30.58;;
18931;SDS011;9598;50.954;3.112;2023-08-17T16:41:19;36.53;;;32.88;;
18931;SDS011;9598;50.954;3.112;2023-08-17T16:46:21;38.22;;;34.33;;
18931;SDS011;9598;50.954;3.112;2023-08-17T16:51:24;34.22;;;31.02;;
18931;SDS011;9598;50.954;3.112;2023-08-17T16:56:26;33.67;;;30.05;;
18931;SDS011;9598;50.954;3.112;2023-08-17T17:01:29;32.67;;;29.42;;
18931;SDS011;9598;50.954;3.112;2023-08-17T17:06:32;32.88;;;29.77;;
18931;SDS011;9598;50.954;3.112;2023-08-17T17:11:34;31.48;;;28.48;;
18931;SDS011;9598;50.954;3.112;2023-08-17T17:16:37;36.30;;;32.70;;
18931;SDS011;9598;50.954;3.112;2023-08-17T17:21:40;37.13;;;33.42;;
18931;SDS011;9598;50.954;3.112;2023-08-17T17:26:42;41.90;;;37.70;;
18931;SDS011;9598;50.954;3.112;2023-08-17T17:31:44;37.20;;;33.65;;
18931;SDS011;9598;50.954;3.112;2023-08-17T17:36:48;37.42;;;33.85;;
18931;SDS011;9598;50.954;3.112;2023-08-17T17:41:50;36.58;;;33.38;;
18931;SDS011;9598;50.954;3.112;2023-08-17T17:46:52;35.55;;;32.17;;
18931;SDS011;9598;50.954;3.112;2023-08-17T17:51:55;38.53;;;34.95;;
18931;SDS011;9598;50.954;3.112;2023-08-17T17:56:57;38.97;;;35.42;;
18931;SDS011;9598;50.954;3.112;2023-08-17T18:02:00;37.95;;;34.50;;
18931;SDS011;9598;50.954;3.112;2023-08-17T18:07:03;34.42;;;31.17;;
18931;SDS011;9598;50.954;3.112;2023-08-17T18:12:05;34.28;;;31.13;;
18931;SDS011;9598;50.954;3.112;2023-08-17T18:17:08;27.33;;;24.63;;
18931;SDS011;9598;50.954;3.112;2023-08-17T18:22:11;21.90;;;19.70;;
18931;SDS011;9598;50.954;3.112;2023-08-17T18:27:14;19.17;;;17.17;;
18931;SDS011;9598;50.954;3.112;2023-08-17T18:32:16;17.35;;;15.73;;
18931;SDS011;9598;50.954;3.112;2023-08-17T18:37:19;17.13;;;15.45;;
18931;SDS011;9598;50.954;3.112;2023-08-17T18:42:21;18.83;;;17.05;;
18931;SDS011;9598;50.954;3.112;2023-08-17T18:47:23;18.33;;;16.50;;
18931;SDS011;9598;50.954;3.112;2023-08-17T18:52:27;19.40;;;17.55;;
18931;SDS011;9598;50.954;3.112;2023-08-17T18:57:30;24.33;;;19.75;;
18931;SDS011;9598;50.954;3.112;2023-08-17T19:02:32;22.55;;;20.30;;
18931;SDS011;9598;50.954;3.112;2023-08-17T19:07:36;20.85;;;18.65;;
18931;SDS011;9598;50.954;3.112;2023-08-17T19:12:39;22.25;;;20.08;;
18931;SDS011;9598;50.954;3.112;2023-08-17T19:17:41;21.83;;;19.52;;
18931;SDS011;9598;50.954;3.112;2023-08-17T19:22:45;20.92;;;19.05;;
18931;SDS011;9598;50.954;3.112;2023-08-17T19:27:48;23.88;;;21.35;;
18931;SDS011;9598;50.954;3.112;2023-08-17T19:32:55;24.35;;;21.83;;
18931;SDS011;9598;50.954;3.112;2023-08-17T19:38:00;25.58;;;22.73;;
18931;SDS011;9598;50.954;3.112;2023-08-17T19:43:03;24.13;;;21.55;;
18931;SDS011;9598;50.954;3.112;2023-08-17T19:48:09;24.38;;;21.77;;
18931;SDS011;9598;50.954;3.112;2023-08-17T19:53:12;23.25;;;20.95;;
18931;SDS011;9598;50.954;3.112;2023-08-17T19:58:17;23.40;;;21.25;;
18931;SDS011;9598;50.954;3.112;2023-08-17T20:03:20;24.27;;;21.95;;
18931;SDS011;9598;50.954;3.112;2023-08-17T20:08:25;24.70;;;22.45;;
18931;SDS011;9598;50.954;3.112;2023-08-17T20:13:27;23.90;;;21.60;;
18931;SDS011;9598;50.954;3.112;2023-08-17T20:18:29;26.27;;;23.30;;
18931;SDS011;9598;50.954;3.112;2023-08-17T20:23:33;23.70;;;21.45;;
18931;SDS011;9598;50.954;3.112;2023-08-17T20:28:35;23.77;;;21.38;;
18931;SDS011;9598;50.954;3.112;2023-08-17T20:33:38;25.88;;;23.35;;
18931;SDS011;9598;50.954;3.112;2023-08-17T20:38:41;24.58;;;22.27;;
18931;SDS011;9598;50.954;3.112;2023-08-17T20:43:43;23.60;;;21.40;;
18931;SDS011;9598;50.954;3.112;2023-08-17T20:48:46;26.75;;;24.17;;
18931;SDS011;9598;50.954;3.112;2023-08-17T20:53:51;24.38;;;22.08;;
18931;SDS011;9598;50.954;3.112;2023-08-17T20:58:53;26.77;;;24.08;;
18931;SDS011;9598;50.954;3.112;2023-08-17T21:03:55;25.63;;;23.20;;
18931;SDS011;9598;50.954;3.112;2023-08-17T21:08:59;26.83;;;24.10;;
18931;SDS011;9598;50.954;3.112;2023-08-17T21:14:01;27.35;;;24.73;;
18931;SDS011;9598;50.954;3.112;2023-08-17T21:19:03;26.05;;;23.65;;
18931;SDS011;9598;50.954;3.112;2023-08-17T21:24:07;27.90;;;25.15;;
18931;SDS011;9598;50.954;3.112;2023-08-17T21:29:09;27.75;;;25.02;;
18931;SDS011;9598;50.954;3.112;2023-08-17T21:34:11;26.80;;;24.20;;
18931;SDS011;9598;50.954;3.112;2023-08-17T21:39:16;27.17;;;24.55;;
18931;SDS011;9598;50.954;3.112;2023-08-17T21:44:18;28.15;;;25.35;;
18931;SDS011;9598;50.954;3.112;2023-08-17T21:49:24;27.38;;;24.77;;
18931;SDS011;9598;50.954;3.112;2023-08-17T21:54:27;28.65;;;25.75;;
18931;SDS011;9598;50.954;3.112;2023-08-17T21:59:29;28.50;;;25.65;;
18931;SDS011;9598;50.954;3.112;2023-08-17T22:04:31;30.90;;;27.70;;
18931;SDS011;9598;50.954;3.112;2023-08-17T22:09:35;30.77;;;27.63;;
18931;SDS011;9598;50.954;3.112;2023-08-17T22:14:37;31.77;;;28.52;;
18931;SDS011;9598;50.954;3.112;2023-08-17T22:19:39;31.55;;;28.45;;
18931;SDS011;9598;50.954;3.112;2023-08-17T22:24:42;31.33;;;28.02;;
18931;SDS011;9598;50.954;3.112;2023-08-17T22:29:45;31.00;;;28.00;;
18931;SDS011;9598;50.954;3.112;2023-08-17T22:34:47;29.98;;;27.05;;
18931;SDS011;9598;50.954;3.112;2023-08-17T22:39:50;30.70;;;27.60;;
18931;SDS011;9598;50.954;3.112;2023-08-17T22:44:52;31.30;;;28.23;;
18931;SDS011;9598;50.954;3.112;2023-08-17T22:49:54;31.08;;;27.77;;
18931;SDS011;9598;50.954;3.112;2023-08-17T22:54:58;29.83;;;26.65;;
18931;SDS011;9598;50.954;3.112;2023-08-17T23:00:00;31.00;;;27.90;;
18931;SDS011;9598;50.954;3.112;2023-08-17T23:05:04;29.02;;;26.10;;
18931;SDS011;9598;50.954;3.112;2023-08-17T23:10:09;29.55;;;26.65;;
18931;SDS011;9598;50.954;3.112;2023-08-17T23:15:12;29.88;;;26.92;;
18931;SDS011;9598;50.954;3.112;2023-08-17T23:20:14;28.23;;;25.27;;
18931;SDS011;9598;50.954;3.112;2023-08-17T23:25:17;28.95;;;25.98;;
18931;SDS011;9598;50.954;3.112;2023-08-17T23:30:19;31.33;;;28.05;;
18931;SDS011;9598;50.954;3.112;2023-08-17T23:35:21;30.15;;;27.15;;
18931;SDS011;9598;50.954;3.112;2023-08-17T23:40:25;30.25;;;27.45;;
18931;SDS011;9598;50.954;3.112;2023-08-17T23:45:27;33.72;;;28.88;;
18931;SDS011;9598;50.954;3.112;2023-08-17T23:50:29;32.00;;;28.58;;
18931;SDS011;9598;50.954;3.112;2023-08-17T23:55:32;31.52;;;28.33;;
